createdAt,value
2022-10-14T00:00:26.928Z,10.70
2022-10-14T00:05:50.114Z,10.20
2022-10-14T00:10:53.210Z,9.50
2022-10-14T00:15:56.623Z,8.80
2022-10-14T00:21:02.073Z,8.20
2022-10-14T00:26:05.819Z,7.80
2022-10-14T00:31:09.012Z,8.70
2022-10-14T00:36:14.886Z,8.00
2022-10-14T00:41:22.802Z,7.50
2022-10-14T00:46:28.572Z,9.60
2022-10-14T00:51:32.600Z,8.70
2022-10-14T00:56:37.036Z,9.60
2022-10-14T01:01:40.758Z,10.50
2022-10-14T01:07:02.294Z,8.00
2022-10-14T01:12:59.671Z,9.30
2022-10-14T01:18:43.636Z,8.70
2022-10-14T01:24:05.894Z,9.00
2022-10-14T01:29:27.364Z,8.70
2022-10-14T01:34:43.951Z,9.10
2022-10-14T01:39:59.448Z,9.70
2022-10-14T01:45:31.125Z,10.10
2022-10-14T01:50:36.804Z,8.00
2022-10-14T01:55:45.834Z,9.50
2022-10-14T02:00:49.144Z,8.60
2022-10-14T02:06:01.978Z,8.90
2022-10-14T02:11:11.536Z,9.60
2022-10-14T02:16:39.217Z,12.00
2022-10-14T02:21:48.674Z,10.00
2022-10-14T02:26:55.979Z,9.30
2022-10-14T02:32:00.310Z,10.00
2022-10-14T02:42:07.344Z,8.80
2022-10-14T02:47:10.551Z,10.80
2022-10-14T02:52:13.759Z,10.20
2022-10-14T02:57:16.967Z,10.30
2022-10-14T03:02:20.299Z,10.70
2022-10-14T03:07:24.203Z,10.10
2022-10-14T03:12:27.412Z,9.70
2022-10-14T03:17:30.933Z,12.40
2022-10-14T03:22:34.137Z,10.00
2022-10-14T03:27:37.752Z,9.50
2022-10-14T03:32:41.063Z,9.20
2022-10-14T03:37:44.277Z,10.30
2022-10-14T03:42:47.481Z,11.30
2022-10-14T03:47:50.895Z,11.30
2022-10-14T03:52:55.774Z,12.40
2022-10-14T03:57:59.565Z,12.10
2022-10-14T04:03:02.774Z,12.10
2022-10-14T04:08:06.594Z,11.40
2022-10-14T04:13:09.905Z,10.80
2022-10-14T04:18:13.215Z,10.50
2022-10-14T04:23:16.426Z,10.70
2022-10-14T04:28:19.606Z,11.60
2022-10-14T04:33:23.967Z,13.10
2022-10-14T04:43:31.001Z,13.60
2022-10-14T04:48:34.310Z,11.90
2022-10-14T04:53:37.521Z,13.40
2022-10-14T04:58:40.725Z,10.80
2022-10-14T05:03:43.935Z,21.40
2022-10-14T05:08:47.180Z,11.50
2022-10-14T05:13:50.456Z,19.50
2022-10-14T05:18:53.869Z,12.90
2022-10-14T05:23:57.178Z,11.70
2022-10-14T05:29:00.551Z,12.20
2022-10-14T05:34:04.005Z,13.60
2022-10-14T05:39:08.982Z,12.80
2022-10-14T05:44:12.673Z,11.40
2022-10-14T05:49:15.983Z,13.20
2022-10-14T05:54:19.295Z,12.70
2022-10-14T05:59:22.709Z,16.20
2022-10-14T06:04:26.224Z,15.50
2022-10-14T06:09:31.351Z,14.40
2022-10-14T06:14:34.686Z,13.90
2022-10-14T06:19:37.896Z,14.50
2022-10-14T06:24:41.106Z,12.90
2022-10-14T06:29:44.415Z,14.50
2022-10-14T06:34:47.725Z,13.80
2022-10-14T06:39:51.137Z,14.20
2022-10-14T06:44:56.542Z,13.60
2022-10-14T06:50:00.523Z,14.10
2022-10-14T06:55:04.353Z,13.10
2022-10-14T07:00:08.899Z,13.70
2022-10-14T07:05:13.734Z,13.80
2022-10-14T07:10:17.146Z,13.30
2022-10-14T07:15:23.789Z,13.00
2022-10-14T07:20:27.086Z,12.80
2022-10-14T07:25:30.358Z,12.60
2022-10-14T07:30:33.877Z,37.00
2022-10-14T07:35:38.759Z,24.40
2022-10-14T07:40:42.136Z,14.40
2022-10-14T07:45:48.102Z,13.40
2022-10-14T07:50:51.519Z,14.20
2022-10-14T07:55:58.862Z,14.10
2022-10-14T08:01:02.029Z,13.20
2022-10-14T08:06:06.060Z,12.60
2022-10-14T08:11:18.278Z,12.90
2022-10-14T08:16:24.556Z,13.70
2022-10-14T08:21:28.993Z,14.40
2022-10-14T08:26:35.991Z,13.60
2022-10-14T08:31:39.419Z,14.70
2022-10-14T08:36:42.611Z,14.50
2022-10-14T08:42:10.093Z,13.80
2022-10-14T08:47:20.673Z,17.30
2022-10-14T08:52:37.876Z,16.20
2022-10-14T08:57:52.177Z,15.90
2022-10-14T09:02:55.621Z,16.10
2022-10-14T09:07:59.310Z,16.50
2022-10-14T09:13:18.651Z,17.70
2022-10-14T09:18:40.241Z,19.20
2022-10-14T09:23:43.344Z,18.70
2022-10-14T09:28:49.187Z,21.00
2022-10-14T09:33:52.421Z,16.10
2022-10-14T09:38:56.527Z,18.60
2022-10-14T09:49:48.329Z,18.70
2022-10-14T09:54:57.476Z,17.60
2022-10-14T10:00:04.323Z,18.00
2022-10-14T10:05:35.342Z,19.40
2022-10-14T10:10:39.059Z,19.90
2022-10-14T10:15:57.313Z,18.50
2022-10-14T10:21:14.654Z,17.70
2022-10-14T10:26:26.094Z,18.80
2022-10-14T10:31:52.609Z,18.70
2022-10-14T10:37:37.599Z,22.10
2022-10-14T10:42:51.863Z,20.90
2022-10-14T10:48:01.525Z,20.90
2022-10-14T10:53:23.267Z,19.00
2022-10-14T10:58:29.450Z,18.90
2022-10-14T11:03:55.394Z,19.10
2022-10-14T11:09:24.714Z,16.00
2022-10-14T11:14:41.025Z,14.30
2022-10-14T11:19:59.180Z,20.50
2022-10-14T11:25:28.603Z,14.30
2022-10-14T11:30:46.560Z,10.90
2022-10-14T11:36:10.861Z,13.40
2022-10-14T11:41:20.826Z,12.80
2022-10-14T11:46:29.156Z,13.20
2022-10-14T11:51:38.815Z,12.60
2022-10-14T11:57:18.382Z,12.60
2022-10-14T12:02:49.714Z,12.70
2022-10-14T12:08:14.867Z,12.20
2022-10-14T12:13:27.102Z,14.20
2022-10-14T12:18:33.272Z,14.80
2022-10-14T12:23:57.163Z,21.30
2022-10-14T12:29:03.787Z,27.40
2022-10-14T12:34:17.091Z,15.40
2022-10-14T12:39:20.196Z,16.00
2022-10-14T12:44:27.911Z,14.60
2022-10-14T12:49:35.730Z,17.20
2022-10-14T12:54:48.407Z,15.20
2022-10-14T12:59:53.067Z,19.50
2022-10-14T13:04:57.237Z,17.20
2022-10-14T13:10:26.255Z,24.80
2022-10-14T13:15:36.827Z,14.30
2022-10-14T13:20:45.870Z,14.50
2022-10-14T13:25:52.561Z,15.80
2022-10-14T13:31:26.504Z,18.40
2022-10-14T13:36:39.528Z,17.20
2022-10-14T13:41:45.512Z,14.70
2022-10-14T13:46:50.150Z,16.50
2022-10-14T13:51:56.833Z,12.90
2022-10-14T13:57:42.774Z,14.50
2022-10-14T14:02:35.096Z,15.00
2022-10-14T14:08:14.126Z,15.00
2022-10-14T14:13:04.597Z,15.70
2022-10-14T14:18:48.883Z,14.20
2022-10-14T14:24:02.607Z,23.50
2022-10-14T14:29:12.239Z,14.30
2022-10-14T14:34:21.554Z,15.50
2022-10-14T14:39:31.048Z,14.80
2022-10-14T14:44:34.869Z,16.50
2022-10-14T14:54:46.817Z,16.40
2022-10-14T15:00:19.618Z,16.20
2022-10-14T15:05:23.337Z,21.00
2022-10-14T15:10:31.685Z,17.80
2022-10-14T15:15:35.189Z,19.60
2022-10-14T15:20:38.801Z,18.30
2022-10-14T15:25:42.013Z,22.70
2022-10-14T15:30:45.116Z,18.40
2022-10-14T15:36:01.997Z,18.80
2022-10-14T15:41:05.663Z,17.60
2022-10-14T15:46:31.407Z,17.50
2022-10-14T15:51:34.506Z,17.50
2022-10-14T15:56:39.454Z,17.10
2022-10-14T16:01:45.301Z,17.00
2022-10-14T16:06:49.967Z,20.20
2022-10-14T16:11:57.568Z,19.10
2022-10-14T16:17:03.248Z,20.90
2022-10-14T16:22:06.454Z,28.40
2022-10-14T16:27:09.664Z,21.00
2022-10-14T16:32:13.587Z,20.90
2022-10-14T16:37:17.106Z,40.60
2022-10-14T16:42:20.315Z,29.80
2022-10-14T16:47:24.347Z,24.70
2022-10-14T16:52:28.060Z,22.50
2022-10-14T16:57:31.166Z,23.10
2022-10-14T17:02:34.332Z,20.90
2022-10-14T17:07:37.481Z,21.90
2022-10-14T17:12:41.302Z,22.10
2022-10-14T17:17:44.919Z,23.00
2022-10-14T17:22:50.083Z,21.90
2022-10-14T17:27:53.439Z,22.70
2022-10-14T17:32:56.699Z,23.40
2022-10-14T17:38:02.879Z,23.00
2022-10-14T17:43:06.183Z,28.10
2022-10-14T17:48:09.292Z,25.90
2022-10-14T17:53:13.010Z,25.00
2022-10-14T17:58:16.629Z,27.10
2022-10-14T18:03:19.837Z,24.00
2022-10-14T18:08:24.175Z,26.10
2022-10-14T18:13:27.398Z,26.00
2022-10-14T18:18:31.408Z,26.30
2022-10-14T18:23:38.986Z,25.10
2022-10-14T18:28:45.454Z,24.40
2022-10-14T18:33:49.841Z,26.00
2022-10-14T18:38:55.210Z,23.80
2022-10-14T18:43:59.423Z,25.00
2022-10-14T18:54:13.427Z,25.70
2022-10-14T18:59:20.045Z,26.60
2022-10-14T19:04:27.136Z,28.30
2022-10-14T19:09:33.089Z,24.10
2022-10-14T19:14:37.038Z,26.50
2022-10-14T19:19:40.424Z,26.20
2022-10-14T19:24:43.632Z,27.20
2022-10-14T19:29:46.756Z,29.30
2022-10-14T19:34:50.050Z,29.60
2022-10-14T19:39:53.362Z,27.20
2022-10-14T19:44:56.475Z,30.50
2022-10-14T19:49:59.680Z,28.40
2022-10-14T19:55:02.986Z,29.60
2022-10-14T20:00:07.115Z,32.80
2022-10-14T20:05:10.323Z,25.70
2022-10-14T20:10:14.145Z,29.20
2022-10-14T20:15:17.562Z,26.50
2022-10-14T20:20:20.870Z,29.00
2022-10-14T20:25:24.081Z,27.50
2022-10-14T20:30:27.228Z,28.60
2022-10-14T20:35:30.905Z,28.50
2022-10-14T20:40:35.950Z,29.40
2022-10-14T20:45:39.181Z,26.50
2022-10-14T20:55:46.467Z,28.60
2022-10-14T21:00:49.731Z,27.20
2022-10-14T21:05:52.927Z,19.30
2022-10-14T21:11:01.048Z,27.10
2022-10-14T21:16:20.741Z,28.40
2022-10-14T21:21:25.483Z,28.20
2022-10-14T21:26:30.238Z,26.50
2022-10-14T21:31:33.745Z,29.80
2022-10-14T21:36:39.111Z,29.20
2022-10-14T21:41:42.925Z,28.80
2022-10-14T21:47:19.207Z,30.00
2022-10-14T21:52:23.340Z,29.30
2022-10-14T21:57:26.861Z,27.20
2022-10-14T22:02:30.165Z,27.70
2022-10-14T22:07:33.372Z,28.80
2022-10-14T22:12:36.584Z,25.60
2022-10-14T22:17:39.792Z,26.10
2022-10-14T22:22:43.204Z,25.40
2022-10-14T22:27:46.512Z,26.60
2022-10-14T22:32:50.028Z,29.70
2022-10-14T22:37:53.647Z,28.50
2022-10-14T22:42:56.855Z,28.30
2022-10-14T22:48:00.269Z,26.60
2022-10-14T22:53:03.584Z,27.80
2022-10-14T22:58:06.687Z,27.50
2022-10-14T23:03:10.198Z,27.10
2022-10-14T23:08:15.086Z,28.00
2022-10-14T23:13:18.360Z,25.90
2022-10-14T23:23:39.112Z,25.90
2022-10-14T23:28:42.621Z,26.40
2022-10-14T23:33:46.654Z,25.10
2022-10-14T23:38:52.732Z,27.10
2022-10-14T23:43:57.075Z,29.80
2022-10-14T23:49:07.473Z,26.80
2022-10-14T23:54:17.612Z,26.40
2022-10-14T23:59:20.923Z,25.00
